Time;durP1;ratioP1;P1;durP2;ratioP2;P2;SDS_P1;SDS_P2;PMS_P1;PMS_P2;Temp;Humidity;BMP_temperature;BMP_pressure;BME280_temperature;BME280_humidity;BME280_pressure;Samples;Min_cycle;Max_cycle;Signal;HPM_P1;HPM_P2
2022/04/20 00:01:44;;;;;;;5.80;2.00;;;14.20;68.30;;;;;;4956071;29;20059;-74
2022/04/20 00:04:12;;;;;;;4.57;2.00;;;14.20;68.20;;;;;;4955079;29;20047;-74
2022/04/20 00:06:39;;;;;;;4.72;2.42;;;14.20;68.00;;;;;;4955275;29;20064;-75
2022/04/20 00:09:04;;;;;;;4.93;2.40;;;14.20;67.80;;;;;;4955252;29;20097;-75
2022/04/20 00:11:30;;;;;;;4.60;2.38;;;14.30;67.60;;;;;;4955532;29;20126;-75
2022/04/20 00:13:56;;;;;;;3.78;1.98;;;14.30;67.10;;;;;;4955186;29;20138;-75
2022/04/20 00:16:22;;;;;;;4.85;2.25;;;14.30;67.10;;;;;;4955054;28;20519;-75
2022/04/20 00:18:47;;;;;;;4.43;2.10;;;14.20;67.10;;;;;;4954395;28;20067;-75
2022/04/20 00:21:13;;;;;;;4.82;2.55;;;14.20;67.00;;;;;;4937688;29;20050;-75
2022/04/20 00:23:39;;;;;;;11.07;3.05;;;14.30;66.90;;;;;;4954613;29;20365;-75
2022/04/20 00:26:04;;;;;;;4.28;2.25;;;14.20;66.60;;;;;;4955075;29;20043;-74
2022/04/20 00:28:30;;;;;;;4.35;2.33;;;14.10;67.20;;;;;;4954268;28;20055;-75
2022/04/20 00:30:56;;;;;;;4.65;2.53;;;14.00;67.20;;;;;;4955123;29;20417;-74
2022/04/20 00:33:21;;;;;;;4.28;2.35;;;14.00;67.50;;;;;;4953483;28;20054;-74
2022/04/20 00:35:48;;;;;;;3.58;1.95;;;14.00;67.40;;;;;;4954228;29;20106;-74
2022/04/20 00:38:16;;;;;;;4.40;2.30;;;14.00;68.10;;;;;;4952946;28;20035;-74
2022/04/20 00:40:42;;;;;;;3.25;1.70;;;13.80;68.40;;;;;;4937246;29;20059;-74
2022/04/20 00:43:08;;;;;;;4.30;2.03;;;13.90;68.10;;;;;;4952989;29;20460;-74
2022/04/20 00:45:35;;;;;;;3.70;2.17;;;13.90;68.10;;;;;;4954802;29;20070;-75
2022/04/20 00:48:03;;;;;;;5.32;1.95;;;13.90;68.50;;;;;;4954211;28;20075;-75
2022/04/20 00:50:29;;;;;;;2.67;1.67;;;14.00;68.10;;;;;;4954438;28;20062;-75
2022/04/20 00:52:55;;;;;;;11.85;2.05;;;14.00;68.30;;;;;;4952743;29;20457;-75
2022/04/20 00:55:20;;;;;;;9.27;2.05;;;14.00;68.30;;;;;;4954655;29;20039;-76
2022/04/20 00:57:46;;;;;;;4.93;1.55;;;14.00;68.70;;;;;;4954063;28;20110;-75
2022/04/20 01:00:12;;;;;;;2.17;1.30;;;13.90;68.90;;;;;;4954117;28;20042;-75
2022/04/20 01:02:38;;;;;;;4.78;1.40;;;14.00;68.60;;;;;;4954535;28;20110;-74
2022/04/20 01:05:03;;;;;;;4.82;1.38;;;14.10;68.40;;;;;;4954694;29;20126;-75
2022/04/20 01:07:35;;;;;;;4.00;1.08;;;14.10;68.80;;;;;;4954551;29;20039;-75
2022/04/20 01:10:01;;;;;;;4.70;1.35;;;13.90;68.90;;;;;;4954764;29;20043;-75
2022/04/20 01:12:27;;;;;;;4.68;1.52;;;14.00;68.60;;;;;;4950469;28;20377;-75
2022/04/20 01:14:52;;;;;;;2.47;1.00;;;14.00;68.30;;;;;;4954410;29;20054;-77
2022/04/20 01:17:18;;;;;;;2.40;1.10;;;13.90;68.10;;;;;;4953072;29;20101;-75
2022/04/20 01:19:44;;;;;;;3.33;1.30;;;14.00;67.80;;;;;;4954112;29;20039;-75
2022/04/20 01:22:09;;;;;;;5.50;1.17;;;14.00;67.60;;;;;;4952662;29;20118;-75
2022/04/20 01:24:36;;;;;;;6.82;0.88;;;14.10;67.50;;;;;;4953589;29;20042;-75
2022/04/20 01:27:03;;;;;;;3.38;0.95;;;14.10;66.90;;;;;;4936448;29;20402;-76
2022/04/20 01:29:29;;;;;;;4.65;1.35;;;14.00;66.20;;;;;;4954394;29;20036;-75
2022/04/20 01:31:56;;;;;;;6.82;1.00;;;13.90;65.90;;;;;;4953713;29;20031;-74
2022/04/20 01:34:22;;;;;;;3.13;1.30;;;13.80;65.40;;;;;;4953472;29;20043;-74
2022/04/20 01:36:48;;;;;;;1.98;0.50;;;13.90;65.50;;;;;;4953732;29;20039;-74
2022/04/20 01:39:14;;;;;;;4.65;1.23;;;14.00;65.10;;;;;;4953600;28;20043;-73
2022/04/20 01:41:40;;;;;;;3.60;0.82;;;14.00;65.00;;;;;;4953873;28;20059;-74
2022/04/20 01:44:06;;;;;;;1.88;0.80;;;14.00;65.10;;;;;;4952010;29;20047;-73
2022/04/20 01:46:31;;;;;;;5.55;1.13;;;14.00;65.50;;;;;;4952060;28;20106;-74
2022/04/20 01:48:57;;;;;;;2.03;1.00;;;14.00;64.90;;;;;;4953285;29;20047;-74
2022/04/20 01:54:07;;;;;;;2.20;0.70;;;14.10;65.10;;;;;;4954703;28;20102;-72
2022/04/20 01:56:33;;;;;;;4.55;1.02;;;14.10;65.50;;;;;;4953045;29;20043;-73
2022/04/20 01:58:59;;;;;;;6.57;1.35;;;13.90;65.80;;;;;;4954279;29;20169;-74
2022/04/20 02:04:09;;;;;;;9.13;1.45;;;13.80;66.60;;;;;;4954441;28;20109;-73
2022/04/20 02:06:35;;;;;;;7.55;1.10;;;13.90;66.10;;;;;;4954068;29;20032;-73
2022/04/20 02:09:00;;;;;;;6.13;1.15;;;13.90;66.10;;;;;;4953842;29;20044;-74
2022/04/20 02:11:26;;;;;;;6.32;1.02;;;14.00;66.00;;;;;;4956063;28;20060;-74
2022/04/20 02:13:52;;;;;;;7.95;1.30;;;14.00;66.00;;;;;;4957000;28;20070;-73
2022/04/20 02:16:17;;;;;;;5.70;1.00;;;14.00;66.00;;;;;;4956903;29;20082;-74
2022/04/20 02:18:43;;;;;;;9.23;1.13;;;14.00;65.80;;;;;;4952516;28;20531;-74
2022/04/20 02:21:09;;;;;;;5.20;0.88;;;13.90;66.00;;;;;;4956986;28;20098;-73
2022/04/20 02:23:34;;;;;;;4.15;0.95;;;13.90;65.80;;;;;;4956413;29;20047;-74
2022/04/20 02:26:00;;;;;;;2.58;0.85;;;14.00;65.60;;;;;;4939603;29;20048;-73
2022/04/20 02:28:26;;;;;;;3.78;0.98;;;14.00;65.50;;;;;;4955811;29;20059;-73
2022/04/20 02:30:51;;;;;;;4.78;0.80;;;14.00;65.50;;;;;;4957418;28;20586;-73
2022/04/20 02:33:17;;;;;;;4.70;1.15;;;14.00;65.50;;;;;;4955932;29;20035;-73
2022/04/20 02:35:43;;;;;;;8.48;1.15;;;14.00;65.50;;;;;;4956918;29;20114;-72
2022/04/20 02:38:10;;;;;;;4.95;1.20;;;13.90;65.30;;;;;;4956791;29;20039;-73
2022/04/20 02:40:40;;;;;;;5.70;0.90;;;13.90;65.60;;;;;;4940162;29;20105;-73
2022/04/20 02:43:06;;;;;;;;;;;13.90;65.40;;;;;;4956700;28;20047;-73
2022/04/20 02:45:32;;;;;;;1.90;0.55;;;13.80;65.30;;;;;;4956947;29;19917;-73
2022/04/20 02:47:57;;;;;;;2.35;0.70;;;13.90;65.30;;;;;;4938654;29;20040;-73
2022/04/20 02:50:23;;;;;;;3.85;0.75;;;13.80;65.20;;;;;;4955891;29;20050;-75
2022/04/20 02:52:49;;;;;;;2.63;0.75;;;13.70;65.00;;;;;;4956978;29;20086;-75
2022/04/20 02:55:15;;;;;;;2.50;0.63;;;13.80;65.00;;;;;;4955565;29;20464;-74
2022/04/20 02:57:40;;;;;;;3.40;0.65;;;13.80;64.60;;;;;;4956630;29;20067;-75
2022/04/20 03:00:06;;;;;;;4.70;0.85;;;13.70;64.60;;;;;;4956167;29;20122;-75
2022/04/20 03:02:32;;;;;;;2.42;0.60;;;13.70;63.90;;;;;;4956973;29;20028;-75
2022/04/20 03:04:58;;;;;;;1.38;0.80;;;13.70;64.40;;;;;;4955019;28;20396;-74
2022/04/20 03:07:24;;;;;;;1.60;0.52;;;13.80;64.40;;;;;;4956936;29;20502;-74
2022/04/20 03:09:50;;;;;;;1.73;0.50;;;13.80;64.20;;;;;;4956009;29;20051;-73
2022/04/20 03:12:16;;;;;;;5.32;1.15;;;13.90;63.90;;;;;;4956845;29;20546;-73
2022/04/20 03:14:42;;;;;;;2.55;0.60;;;13.80;62.80;;;;;;4956560;29;20043;-74
2022/04/20 03:17:08;;;;;;;2.15;0.40;;;13.70;63.70;;;;;;4956214;29;20380;-74
2022/04/20 03:19:33;;;;;;;1.25;0.50;;;13.80;63.60;;;;;;4955420;28;20043;-74
2022/04/20 03:21:59;;;;;;;1.40;0.47;;;13.70;63.50;;;;;;4955562;28;20043;-74
2022/04/20 03:24:26;;;;;;;2.75;0.68;;;13.80;63.40;;;;;;4938618;29;20403;-74
2022/04/20 03:26:52;;;;;;;1.13;0.63;;;13.90;63.70;;;;;;4924485;29;20091;-75
2022/04/20 03:29:17;;;;;;;1.02;0.40;;;13.90;62.90;;;;;;4956643;29;20043;-74
2022/04/20 03:31:43;;;;;;;1.17;0.57;;;13.90;62.80;;;;;;4938428;29;20479;-75
2022/04/20 03:34:09;;;;;;;4.57;0.57;;;13.80;63.30;;;;;;4956511;29;20050;-75
2022/04/20 03:36:35;;;;;;;1.17;0.57;;;13.60;63.40;;;;;;4955611;29;20039;-73
2022/04/20 03:39:02;;;;;;;0.55;0.52;;;13.60;63.40;;;;;;4955878;29;20044;-74
2022/04/20 03:41:27;;;;;;;2.25;0.65;;;13.60;63.40;;;;;;4955120;29;20043;-73
2022/04/20 03:43:53;;;;;;;2.42;0.68;;;13.60;63.20;;;;;;4956213;29;20041;-75
2022/04/20 03:46:19;;;;;;;1.83;0.80;;;13.50;62.60;;;;;;4953229;29;20058;-74
2022/04/20 03:48:45;;;;;;;0.52;0.50;;;13.40;63.20;;;;;;4955848;29;20121;-74
2022/04/20 03:51:11;;;;;;;0.60;0.50;;;13.40;63.10;;;;;;4952550;29;20039;-74
2022/04/20 03:53:37;;;;;;;0.88;0.50;;;13.40;63.00;;;;;;4938477;29;20062;-74
2022/04/20 03:56:03;;;;;;;0.63;0.40;;;13.50;62.90;;;;;;4954347;29;20051;-74
2022/04/20 03:58:29;;;;;;;0.88;0.60;;;13.50;62.70;;;;;;4956430;29;20423;-72
2022/04/20 04:00:55;;;;;;;0.98;0.60;;;13.50;62.50;;;;;;4954386;29;20031;-76
2022/04/20 04:03:20;;;;;;;0.30;0.30;;;13.50;62.40;;;;;;4955358;29;20051;-76
2022/04/20 04:05:46;;;;;;;1.95;0.70;;;13.60;62.30;;;;;;4953908;29;20039;-76
2022/04/20 04:08:12;;;;;;;1.40;0.40;;;13.60;62.20;;;;;;4955697;29;20126;-76
2022/04/20 04:10:38;;;;;;;0.68;0.60;;;13.50;62.30;;;;;;4951501;29;20043;-76
2022/04/20 04:13:03;;;;;;;1.10;0.50;;;13.50;62.40;;;;;;4954440;29;20043;-75
2022/04/20 04:15:29;;;;;;;0.85;0.50;;;13.50;62.10;;;;;;4954442;29;20045;-75
2022/04/20 04:17:58;;;;;;;1.45;0.60;;;13.60;62.00;;;;;;4953245;28;20047;-75
2022/04/20 04:20:28;;;;;;;0.55;0.50;;;13.60;62.00;;;;;;4955449;29;20468;-75
2022/04/20 04:22:54;;;;;;;4.18;0.60;;;13.60;61.80;;;;;;4952620;28;20042;-75
2022/04/20 04:25:19;;;;;;;0.60;0.60;;;13.50;61.20;;;;;;4954407;28;20369;-75
2022/04/20 04:27:45;;;;;;;1.00;0.70;;;13.50;61.80;;;;;;4955202;29;20043;-76
2022/04/20 04:30:11;;;;;;;2.08;1.13;;;13.30;61.90;;;;;;4953449;29;20067;-75
2022/04/20 04:32:38;;;;;;;1.10;0.60;;;13.20;61.90;;;;;;4954226;28;20043;-74
2022/04/20 04:35:04;;;;;;;2.15;0.65;;;13.00;63.10;;;;;;4954326;29;20032;-75
2022/04/20 04:37:29;;;;;;;0.82;0.57;;;12.90;63.60;;;;;;4954875;29;20039;-74
2022/04/20 04:39:56;;;;;;;0.80;0.55;;;13.00;63.40;;;;;;4954398;28;20115;-75
2022/04/20 04:42:22;;;;;;;1.17;0.73;;;13.10;63.10;;;;;;4955272;29;20043;-76
2022/04/20 04:44:48;;;;;;;0.80;0.70;;;13.20;62.70;;;;;;4954503;29;20051;-75
2022/04/20 04:49:58;;;;;;;0.93;0.60;;;13.30;62.30;;;;;;4950990;29;20054;-77
2022/04/20 04:52:23;;;;;;;1.13;0.73;;;13.20;62.40;;;;;;4951811;29;20047;-77
2022/04/20 04:54:49;;;;;;;1.83;0.70;;;13.10;62.60;;;;;;4952693;29;20031;-76
2022/04/20 04:57:15;;;;;;;1.02;0.80;;;13.20;62.50;;;;;;4954816;28;20066;-77
2022/04/20 04:59:43;;;;;;;0.98;0.70;;;13.30;62.40;;;;;;4933530;29;20035;-83
2022/04/20 05:02:09;;;;;;;0.85;0.57;;;13.40;62.60;;;;;;4950595;28;20051;-77
2022/04/20 05:04:37;;;;;;;1.10;0.70;;;13.40;62.20;;;;;;4936292;29;20043;-76
2022/04/20 05:07:04;;;;;;;1.25;0.73;;;13.50;62.00;;;;;;4937474;29;20043;-76
2022/04/20 05:09:39;;;;;;;0.70;0.60;;;13.40;61.70;;;;;;4953677;29;20039;-73
2022/04/20 05:12:07;;;;;;;0.90;0.70;;;13.50;61.90;;;;;;4935987;29;20042;-72
2022/04/20 05:14:36;;;;;;;1.45;0.90;;;13.60;61.70;;;;;;4937350;29;20122;-72
2022/04/20 05:17:02;;;;;;;1.30;0.70;;;13.60;61.70;;;;;;4952277;29;20046;-72
2022/04/20 05:19:29;;;;;;;0.82;0.73;;;13.70;61.70;;;;;;4950722;29;20681;-73
2022/04/20 05:21:55;;;;;;;2.42;0.77;;;13.70;61.50;;;;;;4950571;29;20507;-72
2022/04/20 05:24:20;;;;;;;1.75;0.80;;;13.80;61.30;;;;;;4953608;29;20047;-73
2022/04/20 05:26:46;;;;;;;1.27;0.85;;;13.70;60.60;;;;;;4953752;29;20112;-73
2022/04/20 05:29:12;;;;;;;0.80;0.68;;;13.70;60.80;;;;;;4952893;29;20501;-73
2022/04/20 05:31:38;;;;;;;0.55;0.55;;;13.70;60.80;;;;;;4936350;29;20047;-78
2022/04/20 05:34:03;;;;;;;2.25;0.90;;;13.70;60.80;;;;;;4953373;29;20035;-79
2022/04/20 05:41:39;;;;;;;2.13;0.75;;;13.70;61.40;;;;;;4942049;29;20473;-78
2022/04/20 05:42:00;;;;;;;1.15;0.70;;;14.10;63.90;;;;;;4954672;28;20126;-79
2022/04/20 05:44:26;;;;;;;0.60;0.60;;;14.20;60.70;;;;;;4952784;28;20039;-79
2022/04/20 05:46:51;;;;;;;0.80;0.70;;;14.20;60.40;;;;;;4957053;29;20118;-79
2022/04/20 05:49:17;;;;;;;0.93;0.73;;;14.20;60.30;;;;;;4960523;28;20754;-78
2022/04/20 05:51:42;;;;;;;1.30;0.90;;;14.20;60.00;;;;;;4970007;28;20471;-79
2022/04/20 05:54:08;;;;;;;1.10;0.70;;;14.20;59.80;;;;;;4946901;29;20404;-80
2022/04/20 05:56:34;;;;;;;0.75;0.68;;;14.20;60.10;;;;;;4951216;29;20399;-79
2022/04/20 05:58:59;;;;;;;2.00;0.80;;;14.20;59.80;;;;;;4958372;29;20047;-79
2022/04/20 06:01:26;;;;;;;1.52;1.02;;;14.20;60.20;;;;;;4955353;29;20042;-77
2022/04/20 06:03:52;;;;;;;3.58;0.90;;;14.20;59.00;;;;;;4945175;28;20046;-79
2022/04/20 06:06:18;;;;;;;2.40;0.80;;;14.10;59.90;;;;;;4936120;29;20047;-79
2022/04/20 06:08:44;;;;;;;2.55;0.80;;;14.20;60.00;;;;;;4952785;29;20118;-72
2022/04/20 06:11:11;;;;;;;1.08;0.70;;;14.20;60.00;;;;;;4955995;28;20452;-72
2022/04/20 06:13:37;;;;;;;0.63;0.63;;;14.20;60.00;;;;;;4955223;29;20031;-72
2022/04/20 06:16:07;;;;;;;1.65;0.70;;;14.20;59.80;;;;;;4955319;29;20044;-72
2022/04/20 06:18:33;;;;;;;1.65;0.90;;;14.30;60.00;;;;;;4953556;29;20388;-73
2022/04/20 06:20:58;;;;;;;1.25;0.82;;;14.30;59.80;;;;;;4956083;28;20039;-72
2022/04/20 06:23:24;;;;;;;0.98;0.80;;;14.40;59.40;;;;;;4955547;29;20043;-72
2022/04/20 06:25:54;;;;;;;3.50;0.80;;;14.40;59.90;;;;;;4954619;28;20040;-73
2022/04/20 06:28:20;;;;;;;2.08;0.68;;;14.40;59.30;;;;;;4957225;28;20484;-73
2022/04/20 06:30:46;;;;;;;0.90;0.60;;;14.40;59.50;;;;;;4940660;28;20051;-72
2022/04/20 06:33:11;;;;;;;1.00;0.80;;;14.40;59.60;;;;;;4958442;28;20035;-72
2022/04/20 06:35:37;;;;;;;1.33;0.80;;;14.40;59.30;;;;;;4937791;28;20051;-73
2022/04/20 06:38:03;;;;;;;1.67;0.70;;;14.50;59.10;;;;;;4949861;29;20036;-73
2022/04/20 06:40:28;;;;;;;2.75;0.60;;;14.50;59.30;;;;;;4938162;29;20050;-72
2022/04/20 06:42:54;;;;;;;0.90;0.77;;;14.60;59.10;;;;;;4953030;29;20488;-74
2022/04/20 06:45:20;;;;;;;1.20;0.80;;;14.60;59.20;;;;;;4955801;28;20058;-73
2022/04/20 06:47:45;;;;;;;2.33;0.73;;;14.60;59.00;;;;;;4956193;29;20054;-73
2022/04/20 06:50:12;;;;;;;1.55;0.93;;;14.60;58.70;;;;;;4956712;28;20487;-73
2022/04/20 07:00:50;;;;;;;2.05;0.60;;;14.80;58.80;;;;;;4954103;29;20050;-74
2022/04/20 07:03:16;;;;;;;1.00;0.80;;;14.90;58.40;;;;;;4954677;28;20039;-76
2022/04/20 07:05:41;;;;;;;1.65;0.70;;;14.90;58.70;;;;;;4955754;28;20195;-76
2022/04/20 07:08:07;;;;;;;1.42;0.70;;;15.00;59.20;;;;;;4954502;28;20067;-75
2022/04/20 07:10:33;;;;;;;0.50;0.50;;;15.00;59.00;;;;;;4944648;29;20506;-75
2022/04/20 07:12:59;;;;;;;1.30;0.65;;;15.00;59.20;;;;;;4947911;28;20055;-76
2022/04/20 07:15:25;;;;;;;0.52;0.50;;;15.00;58.80;;;;;;4956076;29;20126;-76
2022/04/20 07:17:50;;;;;;;1.63;0.50;;;15.10;58.80;;;;;;4953843;29;20039;-76
2022/04/20 07:20:19;;;;;;;0.88;0.60;;;15.20;58.80;;;;;;4954917;28;20193;-76
2022/04/20 07:22:49;;;;;;;3.47;0.60;;;15.10;58.70;;;;;;4954125;28;20040;-73
2022/04/20 07:25:16;;;;;;;0.70;0.50;;;15.20;59.00;;;;;;4929174;28;20058;-73
2022/04/20 07:27:42;;;;;;;2.00;0.80;;;15.20;59.40;;;;;;4955177;28;20046;-73
2022/04/20 07:30:08;;;;;;;0.55;0.55;;;15.30;59.20;;;;;;4953897;28;20125;-73
2022/04/20 07:32:34;;;;;;;5.63;4.03;;;15.30;58.80;;;;;;4953736;28;20035;-75
2022/04/20 07:35:00;;;;;;;6.65;5.68;;;15.40;59.10;;;;;;4952482;29;20043;-73
2022/04/20 07:37:26;;;;;;;4.28;2.88;;;15.40;58.80;;;;;;4951366;28;20114;-73
2022/04/20 07:39:51;;;;;;;1.38;1.05;;;15.50;59.00;;;;;;4954073;29;20043;-73
2022/04/20 07:42:21;;;;;;;1.92;0.75;;;15.40;58.80;;;;;;4953202;29;20047;-73
2022/04/20 07:44:46;;;;;;;4.03;1.10;;;15.40;58.50;;;;;;4954380;29;20063;-73
2022/04/20 07:47:12;;;;;;;1.92;0.80;;;15.50;58.70;;;;;;4955103;28;20314;-73
2022/04/20 07:52:22;;;;;;;0.75;0.55;;;15.50;58.40;;;;;;4953948;28;20133;-73
2022/04/20 07:54:47;;;;;;;2.17;0.60;;;15.50;58.30;;;;;;4955134;29;20456;-76
2022/04/20 07:57:15;;;;;;;3.17;0.75;;;15.50;58.50;;;;;;4954440;29;20592;-77
2022/04/20 07:59:41;;;;;;;1.55;0.65;;;15.40;58.50;;;;;;4944684;29;20576;-76
2022/04/20 08:02:08;;;;;;;1.27;0.65;;;15.40;58.80;;;;;;4953644;29;20473;-76
2022/04/20 08:04:33;;;;;;;0.60;0.50;;;15.50;59.00;;;;;;4953700;29;20042;-76
2022/04/20 08:06:59;;;;;;;1.73;0.63;;;15.60;58.70;;;;;;4951368;29;20051;-76
2022/04/20 08:09:25;;;;;;;5.30;1.00;;;15.60;58.80;;;;;;4942701;29;20035;-77
2022/04/20 08:11:51;;;;;;;1.13;0.73;;;15.60;57.80;;;;;;4954372;29;20114;-76
2022/04/20 08:14:17;;;;;;;1.92;0.82;;;15.60;58.60;;;;;;4953962;28;20047;-76
2022/04/20 08:16:44;;;;;;;2.88;0.73;;;15.60;58.40;;;;;;4954622;28;20075;-76
2022/04/20 08:19:10;;;;;;;1.52;0.50;;;15.70;58.30;;;;;;4952962;29;20548;-76
2022/04/20 08:21:36;;;;;;;1.27;0.80;;;15.70;58.60;;;;;;4936723;29;20370;-77
2022/04/20 08:24:02;;;;;;;7.10;0.70;;;15.80;58.20;;;;;;4952855;29;20043;-76
2022/04/20 08:26:28;;;;;;;2.45;0.80;;;15.80;57.50;;;;;;4947178;29;20048;-76
2022/04/20 08:28:54;;;;;;;1.50;0.52;;;15.80;57.10;;;;;;4930161;28;20333;-77
2022/04/20 08:31:19;;;;;;;2.47;0.70;;;15.90;56.80;;;;;;4937001;29;20051;-76
2022/04/20 08:33:45;;;;;;;2.75;0.70;;;15.90;56.70;;;;;;4953073;29;20038;-76
2022/04/20 08:36:15;;;;;;;3.35;0.85;;;15.90;56.60;;;;;;4954614;29;20067;-76
2022/04/20 08:38:42;;;;;;;2.03;0.95;;;15.90;56.50;;;;;;4954163;29;20047;-76
2022/04/20 08:41:12;;;;;;;1.58;0.60;;;16.00;56.70;;;;;;4953643;28;20031;-76
2022/04/20 08:43:40;;;;;;;1.98;0.75;;;16.00;56.40;;;;;;4935993;29;20396;-77
2022/04/20 08:46:09;;;;;;;2.35;0.95;;;16.00;54.70;;;;;;4937169;29;20412;-76
2022/04/20 08:48:35;;;;;;;2.70;0.88;;;16.00;55.00;;;;;;4954255;28;20042;-76
2022/04/20 08:51:05;;;;;;;1.85;0.60;;;16.00;55.10;;;;;;4953826;28;20531;-76
2022/04/20 08:53:30;;;;;;;4.05;0.85;;;16.00;54.80;;;;;;4954029;29;20130;-77
2022/04/20 08:58:46;;;;;;;3.80;1.10;;;16.10;54.10;;;;;;4954099;29;20054;-73
2022/04/20 09:01:13;;;;;;;0.85;0.70;;;16.30;53.80;;;;;;4933633;28;20043;-73
2022/04/20 09:03:39;;;;;;;1.98;0.90;;;16.50;53.60;;;;;;4953443;28;20043;-73
2022/04/20 09:06:07;;;;;;;3.35;0.82;;;16.60;52.10;;;;;;4953485;28;20155;-73
2022/04/20 09:08:34;;;;;;;1.38;0.63;;;16.80;52.30;;;;;;4951828;28;20185;-73
2022/04/20 09:11:00;;;;;;;2.88;0.68;;;16.90;51.90;;;;;;4953630;29;20115;-73
2022/04/20 09:13:35;;;;;;;1.23;0.70;;;17.10;51.00;;;;;;4935787;29;20050;-73
2022/04/20 09:16:06;;;;;;;1.65;0.65;;;17.20;51.00;;;;;;4952466;28;20035;-73
2022/04/20 09:18:32;;;;;;;2.53;0.80;;;17.20;48.70;;;;;;4935498;29;20047;-73
2022/04/20 09:21:11;;;;;;;1.20;0.70;;;17.30;49.00;;;;;;4953498;28;20117;-73
2022/04/20 09:23:38;;;;;;;1.17;0.68;;;17.50;48.90;;;;;;4946525;29;20047;-73
2022/04/20 09:26:09;;;;;;;1.40;0.50;;;17.50;47.10;;;;;;4940294;28;20445;-73
2022/04/20 09:28:37;;;;;;;1.75;0.73;;;17.60;48.40;;;;;;4957167;29;20238;-74
2022/04/20 09:31:04;;;;;;;1.42;0.60;;;17.70;48.20;;;;;;4957590;28;20090;-74
2022/04/20 09:33:43;;;;;;;1.75;0.60;;;17.90;47.50;;;;;;4954348;28;20193;-73
2022/04/20 09:36:09;;;;;;;1.07;0.70;;;18.00;46.60;;;;;;4956157;28;20031;-73
2022/04/20 09:38:39;;;;;;;8.20;0.98;;;18.10;46.70;;;;;;4950054;28;20183;-73
2022/04/20 09:41:10;;;;;;;1.48;0.63;;;18.10;46.00;;;;;;4957871;28;20046;-73
2022/04/20 09:44:02;;;;;;;1.85;0.70;;;18.20;46.10;;;;;;4947632;28;20189;-73
2022/04/20 09:49:11;;;;;;;1.27;0.60;;;18.30;46.20;;;;;;4948899;28;20098;-76
2022/04/20 09:51:42;;;;;;;1.90;0.90;;;18.40;45.50;;;;;;4957107;28;20415;-77
2022/04/20 09:54:26;;;;;;;0.85;0.55;;;18.40;44.40;;;;;;4957522;29;20031;-76
2022/04/20 09:57:12;;;;;;;1.17;0.60;;;18.50;44.60;;;;;;4955777;28;20035;-77
2022/04/20 09:59:57;;;;;;;2.28;0.88;;;18.60;44.30;;;;;;4953873;28;20039;-77
2022/04/20 10:02:23;;;;;;;2.97;0.88;;;18.60;44.50;;;;;;4953304;29;20122;-77
2022/04/20 10:04:49;;;;;;;2.08;0.57;;;18.70;43.80;;;;;;4940458;29;20130;-77
2022/04/20 10:07:15;;;;;;;2.15;0.82;;;18.70;43.00;;;;;;4939870;29;20039;-78
2022/04/20 10:09:43;;;;;;;1.42;0.85;;;18.80;42.90;;;;;;4957859;29;20377;-78
2022/04/20 10:12:17;;;;;;;2.65;0.90;;;18.90;40.90;;;;;;4955696;29;20094;-77
2022/04/20 10:17:36;;;;;;;2.17;0.82;;;19.00;42.50;;;;;;4956297;28;20061;-77
2022/04/20 10:20:04;;;;;;;3.97;0.90;;;19.10;43.10;;;;;;4956717;28;20058;-77
2022/04/20 10:22:31;;;;;;;2.22;0.77;;;19.20;41.20;;;;;;4956495;29;20050;-77
2022/04/20 10:24:58;;;;;;;1.77;0.50;;;19.20;43.00;;;;;;4955902;28;20079;-77
2022/04/20 10:27:53;;;;;;;1.33;0.50;;;19.40;42.00;;;;;;4956256;29;20070;-77
2022/04/20 10:30:26;;;;;;;3.50;0.73;;;19.50;41.80;;;;;;4938017;29;20127;-77
2022/04/20 10:33:07;;;;;;;2.45;0.70;;;19.60;42.40;;;;;;4950820;29;20047;-78
2022/04/20 10:35:53;;;;;;;1.70;0.90;;;19.70;42.20;;;;;;4957068;29;20096;-78
2022/04/20 10:38:19;;;;;;;0.85;0.70;;;19.90;40.40;;;;;;4953305;28;20063;-77
2022/04/20 10:40:57;;;;;;;3.00;0.40;;;20.00;40.20;;;;;;4956684;28;20070;-77
2022/04/20 10:43:23;;;;;;;2.63;0.90;;;20.00;39.80;;;;;;4956590;29;20106;-77
2022/04/20 10:46:20;;;;;;;3.88;0.80;;;20.10;40.50;;;;;;4956307;28;20479;-76
2022/04/20 10:49:07;;;;;;;1.23;0.60;;;20.30;40.20;;;;;;4938020;28;20058;-77
2022/04/20 10:51:42;;;;;;;2.53;0.90;;;20.50;39.20;;;;;;4956152;28;20521;-76
2022/04/20 10:54:29;;;;;;;0.88;0.70;;;20.50;38.50;;;;;;4956526;29;20035;-77
2022/04/20 10:57:01;;;;;;;1.13;0.60;;;20.60;38.50;;;;;;4954679;29;20070;-77
2022/04/20 10:59:30;;;;;;;1.67;0.95;;;20.70;39.80;;;;;;4955279;29;20035;-76
2022/04/20 11:01:59;;;;;;;0.77;0.60;;;20.90;38.90;;;;;;4952751;28;20047;-79
2022/04/20 11:04:43;;;;;;;1.58;0.70;;;20.90;38.60;;;;;;4952072;29;20094;-77
2022/04/20 11:07:08;;;;;;;2.20;0.82;;;21.00;38.60;;;;;;4948895;28;20488;-77
2022/04/20 11:09:47;;;;;;;1.98;0.70;;;21.10;37.60;;;;;;4953114;29;20174;-77
2022/04/20 11:21:04;;;;;;;1.33;0.65;;;21.50;37.10;;;;;;4947041;29;20349;-73
2022/04/20 11:23:54;;;;;;;2.28;0.93;;;21.60;36.30;;;;;;4955162;29;20047;-73
2022/04/20 11:26:21;;;;;;;;;;;21.80;36.50;;;;;;4951917;29;20032;-73
2022/04/20 11:28:48;;;;;;;2.38;0.70;;;21.90;34.30;;;;;;4936506;29;19914;-73
2022/04/20 11:31:14;;;;;;;1.30;0.80;;;22.10;34.20;;;;;;4950723;29;20387;-73
2022/04/20 11:33:40;;;;;;;1.77;0.80;;;22.40;35.60;;;;;;4939132;29;20106;-73
2022/04/20 11:36:06;;;;;;;0.98;0.60;;;22.90;35.00;;;;;;4943111;29;20066;-73
2022/04/20 11:38:37;;;;;;;1.05;0.70;;;23.50;33.10;;;;;;4951967;29;20415;-74
2022/04/20 11:41:04;;;;;;;5.07;0.80;;;24.10;32.50;;;;;;4954886;29;20448;-74
2022/04/20 11:43:31;;;;;;;1.63;0.80;;;24.60;31.20;;;;;;4953049;28;20062;-73
2022/04/20 11:45:57;;;;;;;2.65;1.15;;;25.10;29.50;;;;;;4951646;29;20050;-73
2022/04/20 11:48:23;;;;;;;2.25;0.80;;;25.40;29.50;;;;;;4949754;29;20039;-74
2022/04/20 11:50:59;;;;;;;1.75;0.90;;;25.80;29.30;;;;;;4924215;28;20095;-74
2022/04/20 11:53:34;;;;;;;1.48;0.70;;;26.20;28.60;;;;;;4948858;28;20044;-74
2022/04/20 11:56:01;;;;;;;2.05;0.90;;;26.40;29.00;;;;;;4945141;28;20050;-73
2022/04/20 11:58:27;;;;;;;1.40;0.80;;;26.60;28.80;;;;;;4927940;29;20118;-73
2022/04/20 12:01:04;;;;;;;1.90;0.95;;;26.80;28.70;;;;;;4927593;29;20118;-73
2022/04/20 12:03:41;;;;;;;2.17;0.80;;;27.00;28.60;;;;;;4947442;28;20044;-73
2022/04/20 12:06:10;;;;;;;0.82;0.68;;;27.10;28.50;;;;;;4927240;29;20099;-73
2022/04/20 12:08:41;;;;;;;3.00;1.17;;;26.90;28.30;;;;;;4948735;28;20506;-78
2022/04/20 12:11:09;;;;;;;1.25;0.73;;;27.00;28.90;;;;;;4946766;28;20036;-78
2022/04/20 12:13:36;;;;;;;1.13;0.70;;;27.20;28.90;;;;;;4945297;29;20032;-77
2022/04/20 12:16:14;;;;;;;1.88;1.00;;;27.30;28.40;;;;;;4942032;29;20051;-76
2022/04/20 12:18:59;;;;;;;1.75;0.95;;;27.40;28.40;;;;;;4943862;28;20039;-77
2022/04/20 12:21:45;;;;;;;1.63;0.75;;;27.50;26.90;;;;;;4947846;29;20174;-77
2022/04/20 12:24:25;;;;;;;1.60;0.80;;;27.60;27.80;;;;;;4946420;29;20027;-77
2022/04/20 12:26:54;;;;;;;1.35;0.80;;;27.60;26.50;;;;;;4926379;29;20047;-77
2022/04/20 12:29:27;;;;;;;1.15;0.88;;;27.70;26.70;;;;;;4944701;28;20067;-77
2022/04/20 12:31:54;;;;;;;2.97;0.93;;;27.70;27.10;;;;;;4946671;29;20059;-77
2022/04/20 12:34:23;;;;;;;2.63;0.98;;;27.80;26.30;;;;;;4916776;29;20510;-73
2022/04/20 12:36:53;;;;;;;1.92;1.00;;;28.10;25.60;;;;;;4945977;29;20049;-73
2022/04/20 12:39:29;;;;;;;1.48;1.02;;;28.30;25.10;;;;;;4947712;29;20137;-73
2022/04/20 12:41:58;;;;;;;2.08;0.70;;;28.40;24.90;;;;;;4949607;29;20508;-73
2022/04/20 12:44:35;;;;;;;2.20;0.82;;;28.70;24.20;;;;;;4946149;29;20047;-73
2022/04/20 12:47:21;;;;;;;1.00;0.60;;;28.70;23.90;;;;;;4948938;28;20039;-73
2022/04/20 12:49:51;;;;;;;2.75;0.98;;;28.70;24.00;;;;;;4917874;29;20047;-73
2022/04/20 12:52:19;;;;;;;2.28;1.05;;;28.40;24.40;;;;;;4925895;29;20039;-74
2022/04/20 12:55:09;;;;;;;1.98;1.05;;;28.30;24.40;;;;;;4947611;28;20494;-73
2022/04/20 13:03:18;;;;;;;1.63;0.70;;;27.20;24.50;;;;;;4953382;29;20090;-74
2022/04/20 13:05:45;;;;;;;1.55;1.00;;;26.90;25.00;;;;;;4936518;29;20035;-73
2022/04/20 13:08:12;;;;;;;2.15;0.80;;;26.80;25.30;;;;;;4951829;29;20098;-73
2022/04/20 13:10:41;;;;;;;0.68;0.68;;;27.00;25.10;;;;;;4930792;29;20051;-74
2022/04/20 13:13:07;;;;;;;0.82;0.60;;;26.90;25.00;;;;;;4927367;29;20040;-74
2022/04/20 13:15:34;;;;;;;1.67;0.70;;;26.40;24.20;;;;;;4946895;29;20151;-73
2022/04/20 13:18:00;;;;;;;1.25;0.90;;;26.20;24.90;;;;;;4943089;29;20024;-73
2022/04/20 13:20:28;;;;;;;2.05;0.70;;;25.90;24.80;;;;;;4947974;28;20035;-73
2022/04/20 13:23:01;;;;;;;1.55;0.90;;;25.60;25.00;;;;;;4953594;28;20122;-73
2022/04/20 13:28:11;;;;;;;2.22;0.80;;;25.30;25.50;;;;;;4944787;29;20066;-77
2022/04/20 13:30:39;;;;;;;2.35;0.70;;;25.20;25.70;;;;;;4946921;29;20507;-77
2022/04/20 13:33:14;;;;;;;1.98;0.73;;;25.30;26.20;;;;;;4947819;29;20040;-77
2022/04/20 13:35:41;;;;;;;1.23;0.82;;;25.40;26.10;;;;;;4944286;29;20500;-77
2022/04/20 13:38:07;;;;;;;2.88;1.08;;;25.30;26.20;;;;;;4934959;29;20546;-73
2022/04/20 13:40:36;;;;;;;2.13;1.00;;;25.20;26.30;;;;;;4932841;29;20035;-73